Time;durP1;ratioP1;P1;durP2;ratioP2;P2;SDS_P1;SDS_P2;PMS_P1;PMS_P2;Temp;Humidity;BMP_temperature;BMP_pressure;BME280_temperature;BME280_humidity;BME280_pressure;Samples;Min_cycle;Max_cycle;Signal;HPM_P1;HPM_P2
2023/01/13 00:01:17;;;;;;;;;;;3.50;99.90;;;;;;4934700;28;19954;-66
2023/01/13 00:03:43;;;;;;;;;;;3.60;99.90;;;;;;4939379;28;19928;-66
2023/01/13 00:06:10;;;;;;;;;;;3.50;99.90;;;;;;4932560;29;19926;-65
2023/01/13 00:08:36;;;;;;;;;;;3.50;99.90;;;;;;4931486;28;20354;-65
2023/01/13 00:11:01;;;;;;;;;;;3.50;99.90;;;;;;4935285;28;19968;-65
2023/01/13 00:13:27;;;;;;;;;;;3.60;99.90;;;;;;4933677;29;19914;-65
2023/01/13 00:15:59;;;;;;;;;;;3.60;99.90;;;;;;4934803;28;19925;-65
2023/01/13 00:18:25;;;;;;;;;;;3.60;99.90;;;;;;4930197;29;20502;-66
2023/01/13 00:21:17;;;;;;;;;;;3.60;99.90;;;;;;4935398;29;19921;-65
2023/01/13 00:23:42;;;;;;;;;;;3.60;99.90;;;;;;4931405;29;19964;-66
2023/01/13 00:26:15;;;;;;;;;;;3.60;99.90;;;;;;4931908;28;20279;-67
2023/01/13 00:28:41;;;;;;;;;;;3.60;99.90;;;;;;4928700;28;19919;-67
2023/01/13 00:31:08;;;;;;;;;;;3.60;99.90;;;;;;4930148;29;20284;-66
2023/01/13 00:33:34;;;;;;;;;;;3.60;99.90;;;;;;4935627;28;19946;-66
2023/01/13 00:36:00;;;;;;;;;;;3.60;99.90;;;;;;4947651;28;20423;-66
2023/01/13 00:38:26;;;;;;;;;;;3.70;99.90;;;;;;4935358;28;19997;-66
2023/01/13 00:41:03;;;;;;;;;;;3.70;99.90;;;;;;4935142;28;20048;-66
2023/01/13 00:43:31;;;;;;;;;;;3.70;99.90;;;;;;4934212;28;20535;-69
2023/01/13 00:45:57;;;;;;;;;;;3.70;99.90;;;;;;4927809;28;20587;-69
2023/01/13 00:48:23;;;;;;;;;;;3.70;99.90;;;;;;4930233;28;19921;-69
2023/01/13 00:51:02;;;;;;;;;;;3.80;99.90;;;;;;4918924;28;19958;-69
2023/01/13 00:53:29;;;;;;;;;;;3.90;99.90;;;;;;4946016;28;20624;-70
2023/01/13 00:56:13;;;;;;;;;;;3.90;99.90;;;;;;4934277;28;19919;-69
2023/01/13 00:58:39;;;;;;;;;;;3.90;99.90;;;;;;4927921;28;19985;-69
2023/01/13 01:01:09;;;;;;;;;;;3.90;99.90;;;;;;4936436;28;20426;-70
2023/01/13 01:03:35;;;;;;;;;;;3.90;99.90;;;;;;4931904;28;19950;-70
2023/01/13 01:06:04;;;;;;;;;;;4.00;99.90;;;;;;4931451;28;20009;-71
2023/01/13 01:08:30;;;;;;;;;;;4.00;99.90;;;;;;4932230;28;20403;-71
2023/01/13 01:11:06;;;;;;;;;;;4.00;99.90;;;;;;4935475;29;19933;-71
2023/01/13 01:13:31;;;;;;;;;;;3.90;99.90;;;;;;4933792;29;19914;-71
2023/01/13 01:15:57;;;;;;;;;;;3.80;99.90;;;;;;4924537;29;19934;-71
2023/01/13 01:18:23;;;;;;;;;;;3.80;99.90;;;;;;4924827;29;19927;-72
2023/01/13 01:20:48;;;;;;;;;;;3.70;99.90;;;;;;4943337;28;19997;-71
2023/01/13 01:23:14;;;;;;;;;;;3.80;99.90;;;;;;4925651;28;20418;-68
2023/01/13 01:25:40;;;;;;;;;;;3.70;99.90;;;;;;4927239;29;19933;-68
2023/01/13 01:28:05;;;;;;;;;;;3.80;99.90;;;;;;4927318;29;19960;-68
2023/01/13 01:30:31;;;;;;;;;;;3.80;99.90;;;;;;4925531;29;19954;-67
2023/01/13 01:32:56;;;;;;;;;;;3.80;99.90;;;;;;4930507;28;19918;-68
2023/01/13 01:35:22;;;;;;;;;;;3.80;99.90;;;;;;4944975;28;20298;-67
2023/01/13 01:37:48;;;;;;;;;;;3.80;99.90;;;;;;4936235;28;19918;-68
2023/01/13 01:40:13;;;;;;;;;;;3.80;99.90;;;;;;4934197;28;19910;-70
2023/01/13 01:45:24;;;;;;;;;;;3.70;99.90;;;;;;4930640;29;19934;-66
2023/01/13 01:47:55;;;;;;;;;;;3.60;99.90;;;;;;4931081;28;19946;-67
2023/01/13 01:50:21;;;;;;;;;;;3.60;99.90;;;;;;4929028;28;19914;-67
2023/01/13 01:52:49;;;;;;;;;;;3.60;99.90;;;;;;4929675;28;19926;-67
2023/01/13 01:55:18;;;;;;;;;;;3.60;99.90;;;;;;4925368;28;20036;-66
2023/01/13 01:57:44;;;;;;;;;;;3.60;99.90;;;;;;4904190;28;20393;-67
2023/01/13 02:00:10;;;;;;;;;;;3.60;99.90;;;;;;4912953;28;19914;-72
2023/01/13 02:02:36;;;;;;;;;;;3.60;99.90;;;;;;4926456;28;19997;-72
2023/01/13 02:05:01;;;;;;;;;;;3.60;99.90;;;;;;4928689;28;19932;-71
2023/01/13 02:07:29;;;;;;;;;;;3.60;99.90;;;;;;4935314;29;19939;-72
2023/01/13 02:09:55;;;;;;;;;;;3.70;99.90;;;;;;4931540;28;19914;-72
2023/01/13 02:12:31;;;;;;;;;;;3.80;99.90;;;;;;4934688;28;19918;-72
2023/01/13 02:15:10;;;;;;;;;;;3.80;99.90;;;;;;4930409;29;20838;-71
2023/01/13 02:17:36;;;;;;;;;;;3.80;99.90;;;;;;4934017;28;19925;-72
2023/01/13 02:20:16;;;;;;;;;;;3.90;99.90;;;;;;4923624;28;20287;-67
2023/01/13 02:22:46;;;;;;;;;;;3.90;99.90;;;;;;4933729;29;20152;-68
2023/01/13 02:25:12;;;;;;;;;;;3.90;99.90;;;;;;4929700;28;19954;-68
2023/01/13 02:27:50;;;;;;;;;;;3.90;99.90;;;;;;4944045;28;19926;-68
2023/01/13 02:33:26;;;;;;;;;;;4.00;99.90;;;;;;4935237;28;19917;-68
2023/01/13 02:35:51;;;;;;;;;;;4.00;99.90;;;;;;4933145;29;19918;-68
2023/01/13 02:38:22;;;;;;;;;;;4.00;99.90;;;;;;4946167;28;19961;-70
2023/01/13 02:40:47;;;;;;;;;;;4.00;99.90;;;;;;4932201;28;19918;-71
2023/01/13 02:46:06;;;;;;;;;;;4.00;99.90;;;;;;4932803;29;19981;-70
2023/01/13 02:48:32;;;;;;;;;;;4.00;99.90;;;;;;4908715;28;20394;-71
2023/01/13 02:51:01;;;;;;;;;;;4.10;99.90;;;;;;4929305;28;20394;-72
2023/01/13 02:53:29;;;;;;;;;;;4.10;99.90;;;;;;4928076;28;20390;-71
2023/01/13 02:55:56;;;;;;;;;;;4.10;99.90;;;;;;4935939;28;20009;-71
2023/01/13 02:58:24;;;;;;;;;;;4.10;99.90;;;;;;4935068;28;20865;-66
2023/01/13 03:00:50;;;;;;;;;;;4.20;99.90;;;;;;4926686;28;19968;-67
2023/01/13 03:03:15;;;;;;;;;;;4.20;99.90;;;;;;4937511;28;19918;-67
2023/01/13 03:05:42;;;;;;;;;;;4.30;99.90;;;;;;4928541;28;20769;-67
2023/01/13 03:08:26;;;;;;;;;;;4.30;99.90;;;;;;4933480;28;19925;-66
2023/01/13 03:10:58;;;;;;;;;;;4.30;99.90;;;;;;4936834;29;19919;-67
2023/01/13 03:13:42;;;;;;;;;;;4.30;99.90;;;;;;4936763;29;21362;-67
2023/01/13 03:16:27;;;;;;;;;;;4.40;99.90;;;;;;4930844;29;19918;-71
2023/01/13 03:18:52;;;;;;;;;;;4.30;99.90;;;;;;4936333;28;20418;-70
2023/01/13 03:21:26;;;;;;;;;;;4.30;99.90;;;;;;4934001;28;19997;-71
2023/01/13 03:23:59;;;;;;;;;;;4.20;99.90;;;;;;4935183;29;20062;-71
2023/01/13 03:26:27;;;;;;;;;;;4.10;99.90;;;;;;4936050;29;19941;-71
2023/01/13 03:28:57;;;;;;;;;;;4.10;99.90;;;;;;4936385;29;19929;-71
2023/01/13 03:31:26;;;;;;;;;;;4.10;99.90;;;;;;4928162;28;20385;-72
2023/01/13 03:33:58;;;;;;;;;;;4.10;99.90;;;;;;4934349;28;19925;-71
2023/01/13 03:36:25;;;;;;;;;;;4.10;99.90;;;;;;4935760;28;19914;-70
2023/01/13 03:38:53;;;;;;;;;;;4.10;99.90;;;;;;4939451;29;19914;-71
2023/01/13 03:41:26;;;;;;;;;;;4.10;99.90;;;;;;4933703;28;19994;-71
2023/01/13 03:44:23;;;;;;;;;;;4.10;99.90;;;;;;4935637;28;19933;-71
2023/01/13 03:46:51;;;;;;;;;;;4.00;99.90;;;;;;4934716;28;19951;-71
2023/01/13 03:49:19;;;;;;;;;;;4.00;99.90;;;;;;4934977;29;19925;-71
2023/01/13 03:51:47;;;;;;;;;;;4.00;99.90;;;;;;4935974;29;20531;-71
2023/01/13 03:54:14;;;;;;;;;;;4.00;99.90;;;;;;4938924;29;19921;-67
2023/01/13 03:57:01;;;;;;;;;;;4.10;99.90;;;;;;4932557;28;19918;-67
2023/01/13 03:59:30;;;;;;;;;;;4.20;99.90;;;;;;4934472;28;19919;-67
2023/01/13 04:02:05;;;;;;;;;;;4.20;99.90;;;;;;4935404;28;19914;-67
2023/01/13 04:04:38;;;;;;;;;;;4.20;99.90;;;;;;4939825;28;19954;-67
2023/01/13 04:07:03;;;;;;;;;;;4.20;99.90;;;;;;4931727;29;19977;-67
2023/01/13 04:09:33;;;;;;;;;;;4.20;99.90;;;;;;4933071;29;20302;-66
2023/01/13 04:12:08;;;;;;;;;;;4.30;99.90;;;;;;4932176;28;19926;-67
2023/01/13 04:14:34;;;;;;;;;;;4.20;99.90;;;;;;4928042;28;19914;-67
2023/01/13 04:16:59;;;;;;;;;;;4.20;99.90;;;;;;4934772;29;19914;-66
2023/01/13 04:19:25;;;;;;;;;;;4.30;99.90;;;;;;4936749;29;20724;-67
2023/01/13 04:21:50;;;;;;;;;;;4.30;99.90;;;;;;4937150;29;19910;-67
2023/01/13 04:24:16;;;;;;;;;;;4.30;99.90;;;;;;4931418;29;19922;-67
2023/01/13 04:26:41;;;;;;;;;;;4.30;99.90;;;;;;4934060;29;20016;-67
2023/01/13 04:29:07;;;;;;;;;;;4.30;99.90;;;;;;4934785;29;20355;-67
2023/01/13 04:31:32;;;;;;;;;;;4.30;99.90;;;;;;4938184;28;20311;-71
2023/01/13 04:33:58;;;;;;;;;;;4.40;99.90;;;;;;4936307;29;19918;-71
2023/01/13 04:36:26;;;;;;;;;;;4.40;99.90;;;;;;4934551;29;20005;-71
2023/01/13 04:38:53;;;;;;;;;;;4.40;99.90;;;;;;4931154;29;19914;-71
2023/01/13 04:41:18;;;;;;;;;;;4.40;99.90;;;;;;4934553;28;19917;-71
2023/01/13 04:43:44;;;;;;;;;;;4.40;99.90;;;;;;4933333;29;19915;-71
2023/01/13 04:46:09;;;;;;;;;;;4.40;99.90;;;;;;4933851;29;19933;-71
2023/01/13 04:48:35;;;;;;;;;;;4.30;99.90;;;;;;4930497;29;19973;-70
2023/01/13 04:51:00;;;;;;;;;;;4.40;99.90;;;;;;4933285;29;20210;-71
2023/01/13 04:53:26;;;;;;;;;;;4.30;99.90;;;;;;4932855;29;19973;-67
2023/01/13 04:55:51;;;;;;;;;;;4.30;99.90;;;;;;4928823;29;20008;-67
2023/01/13 04:58:17;;;;;;;;;;;4.30;99.90;;;;;;4928579;28;19961;-67
2023/01/13 05:00:42;;;;;;;;;;;4.20;99.90;;;;;;4936219;29;19918;-67
2023/01/13 05:03:08;;;;;;;;;;;4.20;99.90;;;;;;4927142;28;19917;-67
2023/01/13 05:05:33;;;;;;;;;;;4.20;99.90;;;;;;4933002;29;20017;-66
2023/01/13 05:07:59;;;;;;;;;;;4.30;99.90;;;;;;4928908;28;19965;-66
2023/01/13 05:10:25;;;;;;;;;;;4.30;99.90;;;;;;4936395;29;19969;-66
2023/01/13 05:18:19;;;;;;;;;;;4.40;99.90;;;;;;4934121;29;19945;-66
2023/01/13 05:20:45;;;;;;;;;;;4.40;99.90;;;;;;4936425;28;20358;-66
2023/01/13 05:25:55;;;;;;;;;;;4.50;99.90;;;;;;4931494;29;19973;-67
2023/01/13 05:28:20;;;;;;;;;;;4.40;99.90;;;;;;4931950;29;19918;-71
2023/01/13 05:30:48;;;;;;;;;;;4.40;99.90;;;;;;4935867;28;20001;-67
2023/01/13 05:33:14;;;;;;;;;;;4.40;99.90;;;;;;4934561;28;19982;-67
2023/01/13 05:35:41;;;;;;;;;;;4.40;99.90;;;;;;4933578;28;20004;-67
2023/01/13 05:38:06;;;;;;;;;;;4.40;99.90;;;;;;4931610;28;19952;-67
2023/01/13 05:43:20;;;;;;;;;;;4.40;99.90;;;;;;4933854;29;19973;-66
2023/01/13 05:45:50;;;;;;;;;;;4.40;99.90;;;;;;4926761;28;19936;-66
2023/01/13 05:48:17;;;;;;;;;;;4.40;99.90;;;;;;4934158;28;20368;-69
2023/01/13 05:50:43;;;;;;;;;;;4.30;99.90;;;;;;4933032;29;20453;-69
2023/01/13 05:53:09;;;;;;;;;;;4.40;99.90;;;;;;4932379;28;19927;-70
2023/01/13 05:55:36;;;;;;;;;;;4.40;99.90;;;;;;4930985;28;19919;-69
2023/01/13 05:58:02;;;;;;;;;;;4.50;99.90;;;;;;4928113;29;19919;-69
2023/01/13 06:00:27;;;;;;;;;;;4.60;99.90;;;;;;4926456;28;20271;-69
2023/01/13 06:02:53;;;;;;;;;;;4.60;99.90;;;;;;4931090;28;19910;-69
2023/01/13 06:05:18;;;;;;;;;;;4.60;99.90;;;;;;4931436;28;19961;-69
2023/01/13 06:07:44;;;;;;;;;;;4.60;99.90;;;;;;4940703;29;20574;-66
2023/01/13 06:10:10;;;;;;;;;;;4.60;99.90;;;;;;4934501;28;19918;-67
2023/01/13 06:12:36;;;;;;;;;;;4.70;99.90;;;;;;4941748;28;19965;-67
2023/01/13 06:15:01;;;;;;;;;;;4.80;99.90;;;;;;4937910;28;20306;-67
2023/01/13 06:17:27;;;;;;;;;;;4.90;99.90;;;;;;4941441;28;19996;-67
2023/01/13 06:19:53;;;;;;;;;;;4.90;99.90;;;;;;4940883;29;19998;-67
2023/01/13 06:22:26;;;;;;;;;;;5.00;99.90;;;;;;4940293;29;19914;-67
2023/01/13 06:24:52;;;;;;;;;;;5.00;99.90;;;;;;4937942;29;20001;-66
2023/01/13 06:27:18;;;;;;;;;;;5.00;99.90;;;;;;4934259;28;20500;-68
2023/01/13 06:29:44;;;;;;;;;;;5.00;99.90;;;;;;4933379;28;19914;-68
2023/01/13 06:32:31;;;;;;;;;;;5.00;99.90;;;;;;4935925;28;20394;-67
2023/01/13 06:35:02;;;;;;;;;;;4.90;99.90;;;;;;4927225;28;20479;-72
2023/01/13 06:37:28;;;;;;;;;;;4.70;99.90;;;;;;4937051;29;20772;-68
2023/01/13 06:39:57;;;;;;;;;;;4.70;99.90;;;;;;4940432;29;21397;-67
2023/01/13 06:45:07;;;;;;;;;;;4.70;99.90;;;;;;4937079;28;19929;-68
2023/01/13 06:47:33;;;;;;;;;;;4.80;99.90;;;;;;4937906;29;19915;-68
2023/01/13 06:49:59;;;;;;;;;;;4.80;99.90;;;;;;4951524;28;20410;-68
2023/01/13 06:52:26;;;;;;;;;;;4.80;99.90;;;;;;4942238;29;20376;-68
2023/01/13 06:54:51;;;;;;;;;;;4.90;99.90;;;;;;4939479;28;20655;-68
2023/01/13 06:57:17;;;;;;;;;;;4.90;99.90;;;;;;4944488;28;20411;-68
2023/01/13 06:59:42;;;;;;;;;;;4.90;99.90;;;;;;4933368;29;19942;-68
2023/01/13 07:02:08;;;;;;;;;;;4.80;99.90;;;;;;4943990;28;19915;-68
2023/01/13 07:04:33;;;;;;;;;;;4.80;99.90;;;;;;4959718;28;19926;-68
2023/01/13 07:06:59;;;;;;;;;;;4.80;99.90;;;;;;4941184;28;20284;-68
2023/01/13 07:09:24;;;;;;;;;;;4.80;99.90;;;;;;4941188;29;21098;-67
2023/01/13 07:11:51;;;;;;;;;;;4.80;99.90;;;;;;4940177;29;19945;-68
2023/01/13 07:15:17;;;;;;;;;;;4.80;99.90;;;;;;4938429;29;19919;-68
2023/01/13 07:17:12;;;;;;;;;;;4.80;99.90;;;;;;4925492;28;19910;-68
2023/01/13 07:19:37;;;;;;;;;;;4.90;99.90;;;;;;4941687;28;19977;-67
2023/01/13 07:22:03;;;;;;;;;;;4.90;99.90;;;;;;4943172;28;19911;-68
2023/01/13 07:24:28;;;;;;;;;;;4.90;99.90;;;;;;4945643;28;19929;-68
2023/01/13 07:26:54;;;;;;;;;;;4.90;99.90;;;;;;4947916;28;19915;-68
2023/01/13 07:29:19;;;;;;;;;;;4.90;99.90;;;;;;4943913;28;19921;-68
2023/01/13 07:31:45;;;;;;;;;;;4.90;99.90;;;;;;4937929;29;20009;-68
2023/01/13 07:34:10;;;;;;;;;;;4.90;99.90;;;;;;4947455;29;19917;-68
2023/01/13 07:36:36;;;;;;;;;;;4.90;99.90;;;;;;4940938;28;19997;-68
2023/01/13 07:39:02;;;;;;;;;;;4.90;99.90;;;;;;4939284;29;20000;-68
2023/01/13 07:44:12;;;;;;;;;;;4.90;99.90;;;;;;4942751;29;19978;-68
2023/01/13 07:46:38;;;;;;;;;;;5.00;99.90;;;;;;4939179;28;20342;-68
2023/01/13 07:49:04;;;;;;;;;;;5.00;99.90;;;;;;4940966;28;19957;-68
2023/01/13 07:51:29;;;;;;;;;;;5.00;99.90;;;;;;4944006;28;19967;-68
2023/01/13 07:53:55;;;;;;;;;;;5.00;99.90;;;;;;4944257;29;19922;-68
2023/01/13 07:56:20;;;;;;;;;;;5.10;99.90;;;;;;4943911;28;19985;-68
2023/01/13 07:58:49;;;;;;;;;;;5.10;99.90;;;;;;4948833;28;19922;-70
2023/01/13 08:01:15;;;;;;;;;;;5.00;99.90;;;;;;4946413;28;19911;-68
2023/01/13 08:03:41;;;;;;;;;;;4.90;99.90;;;;;;4938471;29;20349;-69
2023/01/13 08:06:06;;;;;;;;;;;4.80;99.90;;;;;;4943015;28;20292;-68
2023/01/13 08:08:32;;;;;;;;;;;4.70;99.90;;;;;;4943688;28;19958;-68
2023/01/13 08:10:59;;;;;;;;;;;4.50;99.90;;;;;;4945401;28;20529;-67
2023/01/13 08:13:24;;;;;;;;;;;4.50;99.90;;;;;;4923416;28;19990;-67
2023/01/13 08:15:51;;;;;;;;;;;4.50;99.90;;;;;;4941606;29;19946;-69
2023/01/13 08:18:19;;;;;;;;;;;4.50;99.90;;;;;;4930765;28;19915;-67
2023/01/13 08:20:45;;;;;;;;;;;4.50;99.90;;;;;;4923383;28;21226;-67
2023/01/13 08:23:10;;;;;;;;;;;4.50;99.90;;;;;;4933858;28;20442;-67
2023/01/13 08:25:36;;;;;;;;;;;4.50;99.90;;;;;;4940143;28;19922;-68
2023/01/13 08:28:01;;;;;;;;;;;4.50;99.90;;;;;;4941941;28;19917;-68
2023/01/13 08:30:27;;;;;;;;;;;4.60;99.90;;;;;;4933866;28;19914;-68
2023/01/13 08:32:53;;;;;;;;;;;4.60;99.90;;;;;;4941172;28;19973;-67
2023/01/13 08:35:19;;;;;;;;;;;4.50;99.90;;;;;;4937033;28;19918;-68
2023/01/13 08:37:45;;;;;;;;;;;4.50;99.90;;;;;;4937011;28;19957;-68
2023/01/13 08:40:11;;;;;;;;;;;4.50;99.90;;;;;;4925559;28;19910;-68
2023/01/13 08:42:36;;;;;;;;;;;4.40;99.90;;;;;;4928865;28;21182;-67
2023/01/13 08:45:02;;;;;;;;;;;4.40;99.90;;;;;;4928007;28;19961;-67
2023/01/13 08:47:28;;;;;;;;;;;4.40;99.90;;;;;;4926820;28;20485;-67
2023/01/13 08:49:54;;;;;;;;;;;4.40;99.90;;;;;;4938645;29;19976;-67
2023/01/13 08:52:19;;;;;;;;;;;4.40;99.90;;;;;;4940074;28;19929;-67
2023/01/13 08:54:45;;;;;;;;;;;4.40;99.90;;;;;;4932556;28;19919;-67
2023/01/13 08:57:10;;;;;;;;;;;4.40;99.90;;;;;;4923809;28;20494;-67
2023/01/13 08:59:39;;;;;;;;;;;4.40;99.90;;;;;;4931199;28;19911;-67
2023/01/13 09:02:11;;;;;;;;;;;4.30;99.90;;;;;;4921189;28;20798;-67
2023/01/13 09:04:37;;;;;;;;;;;4.20;99.90;;;;;;4936756;28;20009;-67
2023/01/13 09:07:03;;;;;;;;;;;4.10;99.90;;;;;;4946093;29;19917;-67
2023/01/13 09:09:28;;;;;;;;;;;4.10;99.90;;;;;;4937523;28;19918;-67
2023/01/13 09:14:39;;;;;;;;;;;4.10;99.90;;;;;;4923388;28;20406;-66
2023/01/13 09:17:06;;;;;;;;;;;4.20;99.90;;;;;;4927809;28;19957;-68
2023/01/13 09:19:31;;;;;;;;;;;4.20;99.90;;;;;;4941926;28;19914;-66
2023/01/13 09:21:57;;;;;;;;;;;4.20;99.90;;;;;;4940717;28;20551;-67
2023/01/13 09:24:23;;;;;;;;;;;4.30;99.90;;;;;;4940530;28;19918;-67
2023/01/13 09:26:49;;;;;;;;;;;4.20;99.90;;;;;;4934222;28;19914;-67
2023/01/13 09:29:15;;;;;;;;;;;4.30;99.90;;;;;;4932648;28;21413;-67
2023/01/13 09:31:40;;;;;;;;;;;4.30;99.90;;;;;;4941029;28;19910;-66
2023/01/13 09:36:51;;;;;;;;;;;4.40;99.90;;;;;;4928806;28;19968;-67
2023/01/13 09:39:16;;;;;;;;;;;4.40;99.90;;;;;;4932264;28;19925;-68
2023/01/13 09:44:30;;;;;;;;;;;4.30;99.90;;;;;;4932739;28;19925;-67
2023/01/13 09:46:59;;;;;;;;;;;4.20;99.90;;;;;;4925773;29;19923;-67
2023/01/13 09:49:27;;;;;;;;;;;4.20;99.90;;;;;;4940440;28;19921;-67
2023/01/13 09:51:56;;;;;;;;;;;4.10;99.90;;;;;;4940087;29;19949;-66
2023/01/13 09:54:27;;;;;;;;;;;4.20;99.90;;;;;;4936788;28;19914;-66
2023/01/13 09:56:53;;;;;;;;;;;4.30;99.90;;;;;;4937693;28;19915;-67
2023/01/13 09:59:18;;;;;;;;;;;4.30;99.90;;;;;;4936398;28;19925;-67
2023/01/13 10:02:06;;;;;;;;;;;4.20;99.90;;;;;;4936732;28;19918;-67
2023/01/13 10:04:31;;;;;;;;;;;4.30;99.90;;;;;;4933407;28;20004;-67
2023/01/13 10:07:00;;;;;;;;;;;4.30;99.90;;;;;;4940151;28;20906;-68
2023/01/13 10:09:25;;;;;;;;;;;4.30;99.90;;;;;;4928007;28;19958;-68
2023/01/13 10:14:50;;;;;;;;;;;4.30;99.90;;;;;;4925192;28;19915;-68
2023/01/13 10:17:29;;;;;;;;;;;4.30;99.90;;;;;;4943076;28;19992;-66
2023/01/13 10:19:55;;;;;;;;;;;4.40;99.90;;;;;;4936930;28;20276;-66
2023/01/13 10:22:26;;;;;;;;;;;4.40;99.90;;;;;;4940113;29;19918;-67
2023/01/13 10:24:52;;;;;;;;;;;4.40;99.90;;;;;;4927816;28;19926;-66
2023/01/13 10:27:34;;;;;;;;;;;4.30;99.90;;;;;;4931437;28;19925;-66
2023/01/13 10:30:10;;;;;;;;;;;4.30;99.90;;;;;;4931821;28;19977;-66
2023/01/13 10:32:35;;;;;;;;;;;4.40;99.90;;;;;;4925542;28;19997;-67
2023/01/13 10:35:01;;;;;;;;;;;4.40;99.90;;;;;;4932048;28;19918;-67
2023/01/13 10:37:27;;;;;;;;;;;4.40;99.90;;;;;;4937842;28;19918;-67
2023/01/13 10:39:53;;;;;;;;;;;4.40;99.90;;;;;;4940273;28;20024;-66
2023/01/13 10:42:21;;;;;;;;;;;4.50;99.90;;;;;;4922795;28;19953;-67
2023/01/13 10:44:54;;;;;;;;;;;4.60;99.90;;;;;;4926772;28;20330;-66
2023/01/13 10:47:27;;;;;;;;;;;4.60;99.90;;;;;;4937836;29;20009;-66
2023/01/13 10:50:02;;;;;;;;;;;4.60;99.90;;;;;;4939421;28;20001;-66
2023/01/13 10:52:30;;;;;;;;;;;4.50;99.90;;;;;;4941627;28;20299;-67
2023/01/13 10:54:56;;;;;;;;;;;4.50;99.90;;;;;;4942637;28;19973;-67
2023/01/13 10:57:22;;;;;;;;;;;4.40;99.90;;;;;;4937304;28;20311;-66
2023/01/13 10:59:49;;;;;;;;;;;4.50;99.90;;;;;;4945926;28;20205;-66
2023/01/13 11:02:15;;;;;;;;;;;4.50;99.90;;;;;;4942807;28;19962;-67
2023/01/13 11:04:53;;;;;;;;;;;4.60;99.90;;;;;;4943625;28;19969;-67
2023/01/13 11:07:32;;;;;;;;;;;4.70;99.90;;;;;;4942294;29;19910;-66
2023/01/13 11:10:17;;;;;;;;;;;4.80;99.90;;;;;;4955987;28;19950;-67
2023/01/13 11:12:42;;;;;;;;;;;4.90;99.90;;;;;;4943151;29;20005;-67
2023/01/13 11:15:10;;;;;;;;;;;4.90;99.90;;;;;;4934373;28;20050;-68
2023/01/13 11:17:45;;;;;;;;;;;5.00;99.90;;;;;;4942816;28;19918;-67
2023/01/13 11:20:10;;;;;;;;;;;4.90;99.90;;;;;;4934908;28;20386;-67
2023/01/13 11:22:56;;;;;;;;;;;4.90;99.90;;;;;;4946701;29;19911;-66
2023/01/13 11:25:32;;;;;;;;;;;4.90;99.90;;;;;;4934411;28;20389;-67
2023/01/13 11:28:01;;;;;;;;;;;5.00;99.90;;;;;;4938789;28;20445;-67
2023/01/13 11:30:35;;;;;;;;;;;5.00;99.90;;;;;;4935770;28;20371;-66
2023/01/13 11:33:01;;;;;;;;;;;4.90;99.90;;;;;;4939854;28;19922;-65
2023/01/13 11:35:28;;;;;;;;;;;4.90;99.90;;;;;;4922511;28;19954;-66
2023/01/13 11:37:58;;;;;;;;;;;5.00;99.90;;;;;;4947958;28;19914;-66
2023/01/13 11:40:31;;;;;;;;;;;5.00;99.90;;;;;;4937342;28;21163;-66
2023/01/13 11:43:20;;;;;;;;;;;4.90;99.90;;;;;;4942926;28;20001;-66
2023/01/13 11:46:04;;;;;;;;;;;5.00;99.90;;;;;;4927514;28;20025;-66
2023/01/13 11:48:31;;;;;;;;;;;5.10;99.90;;;;;;4932480;28;19918;-67
2023/01/13 11:51:12;;;;;;;;;;;5.10;99.90;;;;;;4933853;28;19918;-66
2023/01/13 11:53:57;;;;;;;;;;;5.10;99.90;;;;;;4932518;28;19974;-66
2023/01/13 11:56:42;;;;;;;;;;;5.10;99.90;;;;;;4940120;28;22328;-66
2023/01/13 11:59:07;;;;;;;;;;;5.20;99.90;;;;;;4942495;28;19965;-66
2023/01/13 12:01:35;;;;;;;;;;;5.10;99.90;;;;;;4930993;28;19962;-66
2023/01/13 12:04:01;;;;;;;;;;;5.10;99.90;;;;;;4931492;28;19915;-66
2023/01/13 12:06:31;;;;;;;;;;;5.10;99.90;;;;;;4932948;28;19927;-66
2023/01/13 12:09:15;;;;;;;;;;;5.00;99.90;;;;;;4913353;28;19918;-68
2023/01/13 12:14:43;;;;;;;;;;;5.00;99.90;;;;;;4916678;28;20055;-67
2023/01/13 12:17:16;;;;;;;;;;;5.10;99.90;;;;;;4932789;28;20004;-67
2023/01/13 12:19:46;;;;;;;;;;;5.20;99.90;;;;;;4958523;28;19914;-68
2023/01/13 12:22:16;;;;;;;;;;;5.40;99.90;;;;;;4941084;28;20459;-68
2023/01/13 12:25:02;;;;;;;;;;;5.30;99.90;;;;;;4936133;28;21165;-68
2023/01/13 12:27:40;;;;;;;;;;;5.20;99.90;;;;;;4940159;28;19914;-67
2023/01/13 12:30:16;;;;;;;;;;;5.20;99.90;;;;;;4934617;28;19914;-66
2023/01/13 12:32:42;;;;;;;;;;;5.20;99.90;;;;;;4922832;28;19914;-66
2023/01/13 12:35:19;;;;;;;;;;;5.10;99.90;;;;;;4940108;28;19915;-65
2023/01/13 12:38:04;;;;;;;;;;;5.10;99.90;;;;;;4931144;28;19918;-66
2023/01/13 12:40:39;;;;;;;;;;;5.10;99.90;;;;;;4927220;28;19937;-65
2023/01/13 12:45:48;;;;;;;;;;;5.10;99.90;;;;;;4936593;28;20329;-66
2023/01/13 12:48:32;;;;;;;;;;;5.00;99.90;;;;;;4936028;28;19918;-68
2023/01/13 12:50:59;;;;;;;;;;;5.20;99.90;;;;;;4938814;29;19922;-66
2023/01/13 12:53:28;;;;;;;;;;;5.20;99.90;;;;;;4936883;28;19922;-66
2023/01/13 12:55:53;;;;;;;;;;;5.20;99.90;;;;;;4931827;28;20003;-66
2023/01/13 12:58:26;;;;;;;;;;;5.20;99.90;;;;;;4926497;28;20412;-66
2023/01/13 13:00:53;;;;;;;;;;;5.10;99.90;;;;;;4932665;28;20443;-66
2023/01/13 13:03:25;;;;;;;;;;;5.10;99.90;;;;;;4915229;28;19945;-66
2023/01/13 13:05:59;;;;;;;;;;;5.10;99.90;;;;;;4933015;28;19989;-66
2023/01/13 13:08:34;;;;;;;;;;;5.20;99.90;;;;;;4927507;28;19952;-66
2023/01/13 13:11:05;;;;;;;;;;;5.10;99.90;;;;;;4929861;28;20005;-66
2023/01/13 13:13:45;;;;;;;;;;;5.20;99.90;;;;;;4937797;29;20002;-66
2023/01/13 13:16:25;;;;;;;;;;;5.20;99.90;;;;;;4941067;29;19911;-66
2023/01/13 13:19:10;;;;;;;;;;;5.20;99.90;;;;;;4939304;28;19917;-66
2023/01/13 13:22:01;;;;;;;;;;;5.10;99.90;;;;;;4936464;29;19987;-66
2023/01/13 13:24:27;;;;;;;;;;;5.10;99.90;;;;;;4928582;28;19922;-66
2023/01/13 13:26:52;;;;;;;;;;;5.00;99.90;;;;;;4940774;29;19915;-66
2023/01/13 13:29:22;;;;;;;;;;;4.90;99.90;;;;;;4936199;29;20029;-66
2023/01/13 13:32:07;;;;;;;;;;;5.00;99.90;;;;;;4940214;28;19934;-67
2023/01/13 13:34:38;;;;;;;;;;;5.10;99.90;;;;;;4930546;28;19914;-66
2023/01/13 13:37:09;;;;;;;;;;;5.20;99.90;;;;;;4924354;28;19997;-66
2023/01/13 13:48:23;;;;;;;;;;;5.30;99.90;;;;;;4929569;28;20504;-68
2023/01/13 13:50:49;;;;;;;;;;;5.30;99.90;;;;;;4931121;28;19964;-67
2023/01/13 13:53:17;;;;;;;;;;;5.40;99.90;;;;;;4933558;28;19922;-67
2023/01/13 13:55:53;;;;;;;;;;;5.60;99.90;;;;;;4937578;28;19969;-67
2023/01/13 13:58:19;;;;;;;;;;;5.70;99.90;;;;;;4937044;28;20432;-67
2023/01/13 14:00:46;;;;;;;;;;;5.70;99.90;;;;;;4926297;28;19910;-67
2023/01/13 14:03:21;;;;;;;;;;;5.70;99.90;;;;;;4936194;29;19925;-67
2023/01/13 14:06:06;;;;;;;;;;;5.50;99.90;;;;;;4940507;29;20899;-66
2023/01/13 14:08:33;;;;;;;;;;;5.30;99.90;;;;;;4932515;29;21786;-66
2023/01/13 14:10:59;;;;;;;;;;;5.20;99.90;;;;;;4923119;28;19918;-66
2023/01/13 14:13:29;;;;;;;;;;;5.10;99.90;;;;;;4925697;29;19925;-65
2023/01/13 14:15:56;;;;;;;;;;;5.00;99.90;;;;;;4934613;28;19918;-66
2023/01/13 14:18:23;;;;;;;;;;;4.90;99.90;;;;;;4925074;28;19921;-66
2023/01/13 14:20:53;;;;;;;;;;;4.90;99.90;;;;;;4936068;28;20898;-66
2023/01/13 14:23:21;;;;;;;;;;;4.90;99.90;;;;;;4932961;28;20383;-66
2023/01/13 14:25:49;;;;;;;;;;;4.90;99.90;;;;;;4931019;28;20303;-66
2023/01/13 14:28:23;;;;;;;;;;;5.00;99.90;;;;;;4935335;28;19929;-67
2023/01/13 14:30:49;;;;;;;;;;;5.00;99.90;;;;;;4926153;28;20252;-66
2023/01/13 14:33:17;;;;;;;;;;;5.00;99.90;;;;;;4932351;28;19918;-66
2023/01/13 14:36:01;;;;;;;;;;;5.10;99.90;;;;;;4924460;28;20380;-66
2023/01/13 14:38:26;;;;;;;;;;;5.10;99.90;;;;;;4923813;28;19919;-65
2023/01/13 14:40:52;;;;;;;;;;;5.00;99.90;;;;;;4922908;28;19918;-67
2023/01/13 14:43:20;;;;;;;;;;;5.00;99.90;;;;;;4916092;28;20093;-66
2023/01/13 14:45:56;;;;;;;;;;;5.00;99.90;;;;;;4921594;28;20444;-67
2023/01/13 14:48:25;;;;;;;;;;;4.90;99.90;;;;;;4924929;29;19926;-67
2023/01/13 14:50:51;;;;;;;;;;;4.90;99.90;;;;;;4923499;28;19946;-67
2023/01/13 14:53:35;;;;;;;;;;;5.00;99.90;;;;;;4927715;28;19926;-66
2023/01/13 14:56:21;;;;;;;;;;;4.90;99.90;;;;;;4927489;28;19985;-66
2023/01/13 14:58:48;;;;;;;;;;;5.00;99.90;;;;;;4913082;28;19966;-66
2023/01/13 15:01:24;;;;;;;;;;;5.00;99.90;;;;;;4914184;28;19918;-66
2023/01/13 15:03:50;;;;;;;;;;;5.00;99.90;;;;;;4918077;28;20453;-66
2023/01/13 15:06:23;;;;;;;;;;;5.10;99.90;;;;;;4915798;28;19926;-67
2023/01/13 15:08:49;;;;;;;;;;;5.10;99.90;;;;;;4925249;28;19930;-66
2023/01/13 15:11:21;;;;;;;;;;;5.20;99.90;;;;;;4912561;28;20350;-66
2023/01/13 15:13:49;;;;;;;;;;;5.30;99.90;;;;;;4920315;28;19925;-66
2023/01/13 15:16:19;;;;;;;;;;;5.30;99.90;;;;;;4918788;28;19926;-66
2023/01/13 15:18:45;;;;;;;;;;;5.30;99.90;;;;;;4917500;28;19922;-67
2023/01/13 15:21:11;;;;;;;;;;;5.20;99.90;;;;;;4926361;28;19918;-67
2023/01/13 15:23:38;;;;;;;;;;;5.10;99.90;;;;;;4914193;28;19915;-67
2023/01/13 15:26:12;;;;;;;;;;;5.10;99.90;;;;;;4928611;28;19973;-67
2023/01/13 15:28:37;;;;;;;;;;;5.00;99.90;;;;;;4918700;28;19918;-67
2023/01/13 15:31:03;;;;;;;;;;;5.10;99.90;;;;;;4925655;28;20767;-67
2023/01/13 15:33:28;;;;;;;;;;;5.20;99.90;;;;;;4919321;28;19918;-67